Time;durP1;ratioP1;P1;durP2;ratioP2;P2;SDS_P1;SDS_P2;PMS_P1;PMS_P2;Temp;Humidity;BMP_temperature;BMP_pressure;BME280_temperature;BME280_humidity;BME280_pressure;Samples;Min_cycle;Max_cycle;Signal;HPM_P1;HPM_P2
2022/10/16 00:00:27;;;;;;;8.60;4.82;;;;;;;10.89;100.00;100859.72;6298878;22;20417;-87
2022/10/16 00:02:52;;;;;;;7.85;5.10;;;;;;;10.89;100.00;100853.53;6312852;22;20077;-88
2022/10/16 00:05:18;;;;;;;8.20;5.30;;;;;;;10.89;100.00;100862.38;6325431;22;20038;-87
2022/10/16 00:07:43;;;;;;;7.57;5.13;;;;;;;10.89;100.00;100853.53;6324158;22;20023;-88
2022/10/16 00:10:08;;;;;;;6.65;4.80;;;;;;;10.87;100.00;100850.97;6321347;22;20050;-88
2022/10/16 00:12:34;;;;;;;6.72;5.43;;;;;;;10.90;100.00;100853.44;6320862;22;20056;-86
2022/10/16 00:14:59;;;;;;;9.57;5.63;;;;;;;10.85;100.00;100844.84;6322463;22;20011;-88
2022/10/16 00:17:24;;;;;;;9.90;5.20;;;;;;;10.90;100.00;100860.56;6323254;22;20018;-87
2022/10/16 00:19:49;;;;;;;6.57;5.22;;;;;;;10.83;100.00;100852.06;6317389;22;19995;-87
2022/10/16 00:22:15;;;;;;;8.15;5.43;;;;;;;10.88;100.00;100854.50;6308837;22;20008;-88
2022/10/16 00:24:40;;;;;;;7.10;5.45;;;;;;;10.85;100.00;100854.63;6310268;22;20003;-88
2022/10/16 00:27:07;;;;;;;8.65;4.97;;;;;;;10.85;100.00;100857.28;6280594;22;20275;-88
2022/10/16 00:29:32;;;;;;;6.82;5.15;;;;;;;10.80;100.00;100851.34;6304486;22;20003;-86
2022/10/16 00:31:58;;;;;;;8.73;5.82;;;;;;;10.72;100.00;100839.28;6305003;22;20463;-88
2022/10/16 00:34:23;;;;;;;7.70;5.47;;;;;;;10.66;100.00;100836.09;6307909;22;20000;-89
2022/10/16 00:36:48;;;;;;;8.15;5.45;;;;;;;10.68;100.00;100843.06;6274667;22;19999;-87
2022/10/16 00:39:14;;;;;;;10.68;5.30;;;;;;;10.64;100.00;100859.25;6302585;22;20030;-88
2022/10/16 00:41:39;;;;;;;9.27;6.15;;;;;;;10.54;100.00;100847.38;6276011;22;20007;-87
2022/10/16 00:44:42;;;;;;;9.82;5.93;;;;;;;10.56;100.00;100864.97;6273953;22;20031;-88
2022/10/16 00:47:17;;;;;;;7.57;6.10;;;;;;;10.48;100.00;100854.69;6275723;22;20030;-88
2022/10/16 00:49:42;;;;;;;8.30;6.22;;;;;;;10.48;100.00;100869.81;6304940;22;20026;-88
2022/10/16 00:52:08;;;;;;;6.93;6.10;;;;;;;10.45;100.00;100862.00;6304172;22;20007;-87
2022/10/16 00:54:33;;;;;;;8.10;6.10;;;;;;;10.47;100.00;100868.09;6303502;22;20425;-86
2022/10/16 00:57:04;;;;;;;8.68;5.85;;;;;;;10.45;100.00;100875.31;6303786;22;20014;-89
2022/10/16 00:59:39;;;;;;;6.82;5.28;;;;;;;10.46;100.00;100869.03;6305669;22;20528;-87
2022/10/16 01:02:07;;;;;;;8.60;5.68;;;;;;;10.38;100.00;100858.78;6281267;22;20850;-87
2022/10/16 01:04:36;;;;;;;8.63;5.68;;;;;;;10.38;100.00;100858.78;6308048;22;20085;-87
2022/10/16 01:07:28;;;;;;;7.65;5.03;;;;;;;10.37;100.00;100866.84;6310245;22;20010;-88
2022/10/16 01:09:56;;;;;;;5.15;4.65;;;;;;;10.34;100.00;100854.53;6261014;22;20018;-87
2022/10/16 01:12:40;;;;;;;6.10;4.75;;;;;;;10.33;100.00;100852.81;6304669;22;20025;-87
2022/10/16 01:15:22;;;;;;;6.80;4.40;;;;;;;10.30;100.00;100847.66;6303800;22;20622;-89
2022/10/16 01:17:58;;;;;;;7.45;4.10;;;;;;;10.27;100.00;100850.47;6303917;22;20053;-87
2022/10/16 01:20:30;;;;;;;6.53;4.18;;;;;;;10.23;100.00;100851.50;6303593;22;20007;-88
2022/10/16 01:23:10;;;;;;;6.60;3.80;;;;;;;10.23;100.00;100854.16;6305099;22;20002;-88
2022/10/16 01:26:20;;;;;;;5.35;3.88;;;;;;;10.19;100.00;100855.25;6305146;22;19999;-88
2022/10/16 01:28:52;;;;;;;6.05;4.40;;;;;;;10.16;100.00;100855.44;6304482;22;20436;-89
2022/10/16 01:31:22;;;;;;;5.65;4.45;;;;;;;10.17;100.00;100860.66;6303473;22;19991;-87
2022/10/16 01:33:55;;;;;;;7.82;4.60;;;;;;;10.19;100.00;100855.25;6305036;22;20003;-87
2022/10/16 01:36:30;;;;;;;5.53;4.57;;;;;;;10.18;100.00;100861.53;6306013;22;20000;-89
2022/10/16 01:39:01;;;;;;;7.85;5.03;;;;;;;10.17;100.00;100854.47;6277965;22;20042;-87
2022/10/16 01:41:32;;;;;;;7.18;4.97;;;;;;;10.18;100.00;100872.16;6304724;22;19999;-87
2022/10/16 01:44:01;;;;;;;6.07;4.82;;;;;;;10.18;100.00;100877.47;6303769;22;20007;-88
2022/10/16 01:46:28;;;;;;;7.50;4.80;;;;;;;10.15;100.00;100878.47;6306081;22;20052;-89
2022/10/16 01:48:54;;;;;;;6.85;4.50;;;;;;;10.17;100.00;100862.47;6273694;22;20536;-88
2022/10/16 01:51:21;;;;;;;6.55;4.88;;;;;;;10.17;100.00;100858.00;6301730;22;20007;-88
2022/10/16 01:53:52;;;;;;;7.20;4.00;;;;;;;10.22;100.00;100866.59;6303904;22;20109;-88
2022/10/16 01:56:22;;;;;;;6.85;4.60;;;;;;;10.23;100.00;100855.03;6305752;22;19995;-87
2022/10/16 01:58:55;;;;;;;4.50;4.00;;;;;;;10.35;100.00;100866.03;6305412;22;20006;-87
2022/10/16 02:01:24;;;;;;;5.30;4.40;;;;;;;10.42;100.00;100871.00;6277578;22;19991;-87
2022/10/16 02:03:53;;;;;;;6.15;4.43;;;;;;;10.52;100.00;100875.84;6305267;22;20011;-89
2022/10/16 02:06:19;;;;;;;4.88;3.55;;;;;;;10.50;100.00;100867.09;6276602;22;19999;-87
2022/10/16 02:08:45;;;;;;;5.60;3.67;;;;;;;10.54;100.00;100855.34;6303723;22;20000;-87
2022/10/16 02:11:11;;;;;;;4.32;3.50;;;;;;;10.54;100.00;100864.19;6275991;22;20038;-87
2022/10/16 02:13:44;;;;;;;6.03;3.35;;;;;;;10.53;100.00;100872.25;6303203;22;19999;-88
2022/10/16 02:16:10;;;;;;;5.00;3.35;;;;;;;10.47;100.00;100873.41;6302381;22;20008;-88
2022/10/16 02:18:35;;;;;;;4.25;2.88;;;;;;;10.41;100.00;100866.63;6300506;22;20015;-87
2022/10/16 02:21:16;;;;;;;4.80;3.00;;;;;;;10.37;100.00;100865.03;6301396;22;20039;-86
2022/10/16 02:23:54;;;;;;;4.28;3.40;;;;;;;10.33;100.00;100860.81;6300914;22;20098;-87
2022/10/16 02:26:41;;;;;;;3.33;2.80;;;;;;;10.26;100.00;100847.88;6301271;22;20003;-88
2022/10/16 02:29:11;;;;;;;7.07;2.95;;;;;;;10.25;100.00;100863.00;6300208;22;20456;-88
2022/10/16 02:31:43;;;;;;;3.13;2.65;;;;;;;10.20;100.00;100859.66;6301909;22;20393;-88
2022/10/16 02:34:11;;;;;;;4.05;2.85;;;;;;;10.18;100.00;100859.72;6301113;22;20003;-87
2022/10/16 02:36:38;;;;;;;3.45;2.83;;;;;;;10.16;100.00;100858.94;6301837;22;20014;-88
2022/10/16 02:39:05;;;;;;;3.90;2.75;;;;;;;10.20;100.00;100862.31;6273143;22;20030;-87
2022/10/16 02:41:30;;;;;;;6.03;3.20;;;;;;;10.19;100.00;100866.75;6301766;22;20018;-87
2022/10/16 02:43:56;;;;;;;4.93;3.25;;;;;;;10.17;100.00;100870.44;6302124;22;20007;-88
2022/10/16 02:46:21;;;;;;;3.90;2.92;;;;;;;10.22;100.00;100866.59;6302524;22;20003;-88
2022/10/16 02:48:47;;;;;;;5.72;2.97;;;;;;;10.24;100.00;100863.88;6315486;22;20031;-88
2022/10/16 02:51:12;;;;;;;3.67;2.88;;;;;;;10.20;100.00;100865.84;6325027;22;20003;-88
2022/10/16 02:53:37;;;;;;;3.55;3.13;;;;;;;10.19;100.00;100865.91;6322433;22;20071;-88
2022/10/16 02:56:03;;;;;;;5.53;3.20;;;;;;;10.17;100.00;100865.97;6297706;22;20344;-87
2022/10/16 02:58:28;;;;;;;4.43;3.30;;;;;;;10.14;100.00;100871.44;6324309;22;20007;-87
2022/10/16 03:00:55;;;;;;;5.10;3.10;;;;;;;10.10;100.00;100869.88;6296684;22;19995;-88
2022/10/16 03:03:20;;;;;;;4.25;2.95;;;;;;;10.04;100.00;100862.19;6322515;22;20022;-87
2022/10/16 03:05:45;;;;;;;3.88;2.92;;;;;;;10.06;100.00;100872.75;6317254;22;20003;-87
2022/10/16 03:08:11;;;;;;;6.13;3.08;;;;;;;10.05;100.00;100877.22;6312053;22;20090;-88
2022/10/16 03:10:36;;;;;;;5.07;3.38;;;;;;;10.07;100.00;100895.75;6312601;22;19995;-87
2022/10/16 03:13:02;;;;;;;5.85;3.70;;;;;;;10.11;100.00;100886.69;6314342;22;20000;-88
2022/10/16 03:15:28;;;;;;;5.05;3.22;;;;;;;10.13;100.00;100882.16;6309256;22;20059;-88
2022/10/16 03:17:54;;;;;;;4.80;2.97;;;;;;;10.14;100.00;100878.56;6309962;22;20068;-88
2022/10/16 03:20:19;;;;;;;5.32;3.45;;;;;;;10.14;100.00;100887.41;6309598;22;20086;-88
2022/10/16 03:22:44;;;;;;;7.13;3.40;;;;;;;10.08;100.00;100870.91;6306749;22;20170;-87
2022/10/16 03:25:10;;;;;;;4.65;3.75;;;;;;;10.15;100.00;100893.56;6304864;22;20078;-88
2022/10/16 03:27:35;;;;;;;4.30;3.22;;;;;;;10.08;100.00;100885.06;6279620;22;20022;-87
2022/10/16 03:30:00;;;;;;;4.15;3.00;;;;;;;10.12;100.00;100889.28;6308937;22;20417;-88
2022/10/16 03:32:25;;;;;;;3.70;3.08;;;;;;;10.08;100.00;100882.41;6308075;22;20005;-88
2022/10/16 03:34:52;;;;;;;3.47;3.17;;;;;;;10.17;100.00;100894.38;6307976;22;20003;-88
2022/10/16 03:37:18;;;;;;;5.40;3.00;;;;;;;10.14;100.00;100886.53;6303296;22;20483;-87
2022/10/16 03:39:43;;;;;;;3.72;2.92;;;;;;;10.12;100.00;100883.97;6304456;22;20011;-86
2022/10/16 03:42:08;;;;;;;4.78;3.13;;;;;;;10.18;100.00;100891.63;6276469;22;20007;-87
2022/10/16 03:44:34;;;;;;;4.22;3.25;;;;;;;10.19;100.00;100889.84;6278221;22;20011;-88
2022/10/16 03:46:59;;;;;;;4.13;3.28;;;;;;;10.18;100.00;100896.09;6277665;22;19999;-86
2022/10/16 03:49:24;;;;;;;5.18;3.10;;;;;;;10.19;100.00;100898.66;6308206;22;20038;-88
2022/10/16 03:51:50;;;;;;;3.95;3.20;;;;;;;10.23;100.00;100899.38;6307520;22;19999;-87
2022/10/16 03:54:15;;;;;;;3.67;3.28;;;;;;;10.25;100.00;100910.00;6311173;22;20543;-87
2022/10/16 03:56:40;;;;;;;2.97;2.42;;;;;;;10.26;100.00;100911.72;6280881;22;19999;-87
2022/10/16 03:59:05;;;;;;;2.90;2.70;;;;;;;10.33;100.00;100916.69;6302194;22;20514;-87
2022/10/16 04:01:31;;;;;;;5.35;3.20;;;;;;;10.32;100.00;100912.28;6303082;22;20015;-88
2022/10/16 04:03:56;;;;;;;4.78;3.17;;;;;;;10.31;100.00;100904.38;6266571;22;20012;-86
2022/10/16 04:06:21;;;;;;;4.50;2.88;;;;;;;10.36;100.00;100907.66;6266710;22;20135;-86
2022/10/16 04:08:47;;;;;;;5.70;2.97;;;;;;;10.39;100.00;100910.19;6267702;22;20007;-88
2022/10/16 04:11:12;;;;;;;4.07;2.60;;;;;;;10.40;100.00;100915.41;6267660;22;20007;-87
2022/10/16 04:13:37;;;;;;;3.97;3.00;;;;;;;10.36;100.00;100916.50;6270632;22;20009;-86
2022/10/16 04:16:03;;;;;;;4.15;2.33;;;;;;;10.41;100.00;100922.50;6273018;22;20007;-87
2022/10/16 04:18:28;;;;;;;2.85;2.60;;;;;;;10.40;100.00;100909.25;6273145;22;20476;-87
2022/10/16 04:20:54;;;;;;;5.20;3.17;;;;;;;10.45;100.00;100921.41;6273618;22;20003;-87
2022/10/16 04:23:20;;;;;;;6.05;2.60;;;;;;;10.46;100.00;100909.81;6273423;22;20010;-86
2022/10/16 04:25:45;;;;;;;5.00;3.10;;;;;;;10.52;100.00;100926.41;6272981;22;19999;-87
2022/10/16 04:28:10;;;;;;;4.72;3.13;;;;;;;10.54;100.00;100921.88;6274676;22;20004;-87
2022/10/16 04:30:38;;;;;;;4.68;2.97;;;;;;;10.52;100.00;100916.63;6279403;22;20007;-87
2022/10/16 04:33:04;;;;;;;5.45;2.97;;;;;;;10.54;100.00;100928.06;6279001;22;20388;-87
2022/10/16 04:35:29;;;;;;;6.82;3.00;;;;;;;10.54;100.00;100916.56;6281970;22;20061;-86
2022/10/16 04:37:57;;;;;;;4.57;3.08;;;;;;;10.55;100.00;100932.44;6275094;22;20008;-86
2022/10/16 04:40:22;;;;;;;3.85;2.80;;;;;;;10.54;100.00;100927.22;6271528;22;20015;-86
2022/10/16 04:42:48;;;;;;;4.72;3.00;;;;;;;10.52;100.00;100932.59;6274586;22;19999;-87
2022/10/16 04:45:13;;;;;;;5.75;3.05;;;;;;;10.52;100.00;100929.94;6271937;22;20079;-87
2022/10/16 04:47:39;;;;;;;6.22;3.40;;;;;;;10.50;100.00;100938.94;6269985;22;20011;-87
2022/10/16 04:50:06;;;;;;;8.18;3.28;;;;;;;10.51;100.00;100945.97;6271314;22;20011;-86
2022/10/16 04:52:31;;;;;;;4.45;3.00;;;;;;;10.51;100.00;100945.97;6271221;22;20003;-87
2022/10/16 04:55:00;;;;;;;4.22;3.10;;;;;;;10.49;100.00;100940.72;6271861;22;20021;-87
2022/10/16 04:57:26;;;;;;;5.95;3.45;;;;;;;10.50;100.00;100950.44;6270185;22;20009;-88
2022/10/16 04:59:52;;;;;;;4.38;3.25;;;;;;;10.45;100.00;100941.84;6270666;22;20038;-87
2022/10/16 05:02:17;;;;;;;5.03;3.10;;;;;;;10.48;100.00;100950.50;6279193;22;20364;-86
2022/10/16 05:04:42;;;;;;;5.15;3.20;;;;;;;10.53;100.00;100946.75;6305465;22;20086;-87
2022/10/16 05:07:08;;;;;;;4.68;3.20;;;;;;;10.51;100.00;100948.66;6307554;22;19995;-88
2022/10/16 05:09:33;;;;;;;5.25;3.33;;;;;;;10.50;100.00;100945.13;6304171;22;20377;-88
2022/10/16 05:11:58;;;;;;;5.40;3.40;;;;;;;10.53;100.00;100960.91;6275312;22;20003;-87
2022/10/16 05:14:24;;;;;;;5.30;3.40;;;;;;;10.57;100.00;100974.94;6302042;22;19999;-86
2022/10/16 05:16:49;;;;;;;6.10;2.80;;;;;;;10.60;100.00;100982.78;6273495;22;20006;-87
2022/10/16 05:19:14;;;;;;;5.30;2.83;;;;;;;10.56;100.00;100989.19;6273649;22;20028;-87
2022/10/16 05:21:40;;;;;;;4.50;2.55;;;;;;;10.59;100.00;100994.38;6274362;22;20003;-86
2022/10/16 05:24:05;;;;;;;5.10;2.67;;;;;;;10.51;100.00;100981.44;6273460;22;20018;-89
2022/10/16 05:26:30;;;;;;;3.83;2.90;;;;;;;10.56;100.00;100990.06;6301675;22;19999;-89
2022/10/16 05:28:55;;;;;;;4.97;2.80;;;;;;;10.56;100.00;100989.19;6301771;22;20003;-88
2022/10/16 05:31:21;;;;;;;3.38;2.85;;;;;;;10.53;100.00;100990.19;6306288;22;20056;-88
2022/10/16 05:33:46;;;;;;;3.95;2.88;;;;;;;10.51;100.00;100988.56;6310222;22;20496;-88
2022/10/16 05:36:12;;;;;;;3.88;2.80;;;;;;;10.50;100.00;100986.84;6307548;22;19999;-88
2022/10/16 05:38:38;;;;;;;3.20;2.83;;;;;;;10.50;100.00;100992.16;6313356;22;20011;-87
2022/10/16 05:41:04;;;;;;;3.63;2.67;;;;;;;10.43;100.00;100989.78;6294650;22;20014;-87
2022/10/16 05:43:31;;;;;;;4.20;3.05;;;;;;;10.51;100.00;101002.72;6322897;22;20014;-87
2022/10/16 05:45:59;;;;;;;7.50;3.28;;;;;;;10.45;100.00;101009.22;6290792;22;20023;-89
2022/10/16 05:48:25;;;;;;;3.92;3.20;;;;;;;10.48;100.00;101025.03;6287722;22;20010;-87
2022/10/16 05:51:04;;;;;;;4.50;3.10;;;;;;;10.47;100.00;101025.97;6308440;22;20053;-89
2022/10/16 05:53:32;;;;;;;3.95;3.20;;;;;;;10.43;100.00;101019.06;6309762;22;20003;-88
2022/10/16 05:55:58;;;;;;;5.30;3.58;;;;;;;10.46;100.00;101029.56;6309016;22;20003;-88
2022/10/16 05:58:25;;;;;;;4.00;3.00;;;;;;;10.42;100.00;101032.44;6306529;22;19999;-88
2022/10/16 06:01:15;;;;;;;5.53;3.47;;;;;;;10.36;100.00;101041.56;6307170;22;20124;-88
2022/10/16 06:03:41;;;;;;;5.38;3.35;;;;;;;10.39;100.00;101041.41;6290502;22;20011;-87
2022/10/16 06:06:13;;;;;;;5.95;3.50;;;;;;;10.38;100.00;101041.50;6279191;22;20038;-88
2022/10/16 06:08:40;;;;;;;4.37;3.30;;;;;;;10.35;100.00;101045.16;6306878;22;19999;-87
2022/10/16 06:11:08;;;;;;;7.38;3.45;;;;;;;10.30;100.00;101044.53;6305542;22;20718;-87
2022/10/16 06:13:34;;;;;;;7.72;3.97;;;;;;;10.30;100.00;101052.50;6306346;22;20003;-88
2022/10/16 06:16:00;;;;;;;4.72;3.53;;;;;;;10.31;100.00;101056.88;6278640;22;20068;-88
2022/10/16 06:18:27;;;;;;;5.85;4.75;;;;;;;10.33;100.00;101065.66;6277730;22;20014;-88
2022/10/16 06:20:53;;;;;;;6.03;3.95;;;;;;;10.33;100.00;101062.16;6302168;22;20003;-87
2022/10/16 06:23:19;;;;;;;5.90;4.10;;;;;;;10.29;100.00;101068.53;6301902;22;20049;-88
2022/10/16 06:25:44;;;;;;;8.65;3.83;;;;;;;10.32;100.00;101079.88;6302232;22;20003;-87
2022/10/16 06:28:10;;;;;;;7.60;4.18;;;;;;;10.32;100.00;101079.88;6303762;22;20003;-89
2022/10/16 06:30:35;;;;;;;7.00;4.00;;;;;;;10.34;100.00;101078.03;6276366;22;20065;-88
2022/10/16 06:33:00;;;;;;;7.15;3.72;;;;;;;10.30;100.00;101070.25;6302980;22;19999;-88
2022/10/16 06:35:26;;;;;;;6.75;4.30;;;;;;;10.32;100.00;101085.19;6279297;22;19999;-89
2022/10/16 06:37:52;;;;;;;6.30;4.25;;;;;;;10.29;100.00;101085.38;6280803;22;20474;-88
2022/10/16 06:40:18;;;;;;;6.82;4.20;;;;;;;10.28;100.00;101091.59;6310980;22;20025;-88
2022/10/16 06:42:43;;;;;;;8.32;3.63;;;;;;;10.33;100.00;101094.94;6310924;22;20007;-88
2022/10/16 06:45:09;;;;;;;5.47;4.22;;;;;;;10.30;100.00;101102.19;6310456;22;19995;-87
2022/10/16 06:47:34;;;;;;;6.28;3.95;;;;;;;10.28;100.00;101112.03;6305725;22;19999;-87
2022/10/16 06:49:59;;;;;;;6.93;3.70;;;;;;;10.31;100.00;101118.06;6305561;22;20007;-88
2022/10/16 06:52:28;;;;;;;7.18;4.00;;;;;;;10.27;100.00;101121.81;6303483;22;20003;-86
2022/10/16 06:54:53;;;;;;;5.70;3.80;;;;;;;10.26;100.00;101120.09;6275261;22;20007;-87
2022/10/16 06:57:18;;;;;;;5.80;3.90;;;;;;;10.27;100.00;101123.59;6301657;22;20765;-88
2022/10/16 06:59:44;;;;;;;6.28;3.70;;;;;;;10.16;100.00;101106.31;6302386;22;20068;-87
2022/10/16 07:02:09;;;;;;;4.93;3.78;;;;;;;10.37;100.00;101138.25;6302935;22;20486;-87
2022/10/16 07:04:36;;;;;;;8.38;4.50;;;;;;;10.36;100.00;101145.31;6306793;22;19999;-88
2022/10/16 07:07:01;;;;;;;6.30;4.20;;;;;;;10.40;100.00;101146.06;6277624;22;20421;-92
2022/10/16 07:09:26;;;;;;;5.78;4.05;;;;;;;10.42;100.00;101146.88;6307508;22;19999;-89
2022/10/16 07:11:52;;;;;;;6.20;4.40;;;;;;;10.52;100.00;101149.97;6275847;22;20325;-87
2022/10/16 07:14:19;;;;;;;5.18;3.92;;;;;;;10.47;100.00;101143.06;6306008;22;19999;-87
2022/10/16 07:16:45;;;;;;;6.93;3.92;;;;;;;10.56;100.00;101155.06;6310273;22;20009;-89
2022/10/16 07:19:12;;;;;;;7.97;3.72;;;;;;;10.57;100.00;101155.94;6313534;22;20019;-88
2022/10/16 07:21:37;;;;;;;4.88;4.03;;;;;;;10.60;100.00;101153.13;6316726;22;20073;-88
2022/10/16 07:24:05;;;;;;;6.75;3.95;;;;;;;10.69;100.00;101166.88;6309595;22;20039;-85
2022/10/16 07:26:34;;;;;;;6.10;4.63;;;;;;;10.75;100.00;101167.56;6302092;22;19995;-87
2022/10/16 07:29:00;;;;;;;6.05;4.22;;;;;;;10.79;100.00;101172.66;6303887;22;20427;-88
2022/10/16 07:31:26;;;;;;;6.88;4.20;;;;;;;10.85;100.00;101179.50;6301853;22;20022;-87
2022/10/16 07:33:51;;;;;;;5.35;3.85;;;;;;;10.88;100.00;101179.34;6303040;22;20412;-86
2022/10/16 07:36:18;;;;;;;7.75;4.00;;;;;;;10.96;100.00;101191.38;6302399;22;20003;-88
2022/10/16 07:38:44;;;;;;;4.70;3.90;;;;;;;10.97;100.00;101187.78;6304636;22;19999;-88
2022/10/16 07:41:15;;;;;;;7.68;4.25;;;;;;;11.07;100.00;101203.31;6303852;22;20007;-88
2022/10/16 07:43:45;;;;;;;6.03;3.70;;;;;;;11.10;100.00;101193.38;6313804;22;20003;-89
2022/10/16 07:46:10;;;;;;;5.47;3.70;;;;;;;11.21;100.00;101203.53;6278593;22;20007;-88
2022/10/16 07:48:36;;;;;;;6.88;4.63;;;;;;;11.27;100.00;101205.03;6306791;22;20006;-87
2022/10/16 07:51:04;;;;;;;4.47;3.90;;;;;;;11.37;100.00;101212.53;6307006;22;20007;-87
2022/10/16 07:53:30;;;;;;;5.88;3.92;;;;;;;11.43;100.00;101214.03;6306912;22;20010;-88
2022/10/16 07:56:00;;;;;;;6.25;3.90;;;;;;;11.48;100.00;101222.66;6278349;22;20071;-88
2022/10/16 07:58:27;;;;;;;7.13;4.80;;;;;;;11.53;100.00;101227.75;6304970;22;20061;-88
2022/10/16 08:00:53;;;;;;;10.07;5.22;;;;;;;11.57;100.00;101234.66;6276807;22;20000;-88
2022/10/16 08:03:18;;;;;;;5.88;4.40;;;;;;;11.58;100.00;101233.72;6303496;22;20014;-87
2022/10/16 08:05:43;;;;;;;6.45;4.38;;;;;;;11.65;100.00;101243.16;6275957;22;20003;-87
2022/10/16 08:08:13;;;;;;;7.40;4.55;;;;;;;11.76;100.00;101238.16;6301293;22;19999;-89
2022/10/16 08:10:39;;;;;;;7.32;4.03;;;;;;;11.86;100.00;101244.78;6302611;22;20306;-87
2022/10/16 08:13:04;;;;;;;5.63;3.72;;;;;;;11.91;100.00;101247.22;6303610;22;20083;-88
2022/10/16 08:15:29;;;;;;;4.68;3.67;;;;;;;12.09;100.00;101249.00;6276174;22;20003;-88
2022/10/16 08:18:00;;;;;;;5.22;4.13;;;;;;;12.20;100.00;101251.09;6289542;22;20144;-87
2022/10/16 08:20:26;;;;;;;8.57;3.65;;;;;;;12.26;100.00;101263.28;6314748;22;20088;-87
2022/10/16 08:22:52;;;;;;;6.88;3.38;;;;;;;12.33;100.00;101270.00;6319217;22;19995;-88
2022/10/16 08:25:17;;;;;;;8.73;3.22;;;;;;;12.39;100.00;101264.38;6313429;22;19995;-89
2022/10/16 08:27:44;;;;;;;8.55;3.53;;;;;;;12.40;100.00;101256.28;6322664;22;20029;-87
2022/10/16 08:30:10;;;;;;;6.65;3.35;;;;;;;12.46;100.00;101274.66;6321730;22;19999;-89
2022/10/16 08:32:35;;;;;;;5.13;2.85;;;;;;;12.49;100.00;101260.28;6325366;22;20015;-88
2022/10/16 08:35:01;;;;;;;4.07;2.67;;;;;;;12.53;100.00;101268.97;6317557;22;20003;-89
2022/10/16 08:37:30;;;;;;;9.13;2.67;;;;;;;12.59;100.00;101269.53;6307594;22;20466;-88
2022/10/16 08:39:56;;;;;;;4.43;2.75;;;;;;;12.65;100.00;101265.69;6278284;22;20002;-89
2022/10/16 08:42:24;;;;;;;5.50;2.47;;;;;;;12.65;100.00;101279.03;6306103;22;20008;-87
2022/10/16 08:45:08;;;;;;;6.13;2.72;;;;;;;12.77;100.00;101290.88;6305693;22;20030;-89
2022/10/16 08:47:45;;;;;;;4.50;2.50;;;;;;;12.92;100.00;101287.41;6304859;22;20709;-88
2022/10/16 08:50:21;;;;;;;5.65;2.60;;;;;;;12.90;100.00;101289.28;6305679;22;20037;-88
2022/10/16 08:52:46;;;;;;;4.45;2.40;;;;;;;13.01;100.00;101294.06;6308359;22;20310;-88
2022/10/16 08:55:38;;;;;;;4.55;2.20;;;;;;;13.13;100.00;101304.94;6303110;22;20003;-88
2022/10/16 08:58:12;;;;;;;6.72;2.90;;;;;;;13.11;100.00;101300.63;6304790;22;20064;-89
2022/10/16 09:00:38;;;;;;;5.90;2.60;;;;;;;13.09;100.00;101289.16;6306179;22;20003;-89
2022/10/16 09:03:16;;;;;;;6.00;2.20;;;;;;;13.16;100.00;101302.09;6305377;22;20098;-89
2022/10/16 09:06:03;;;;;;;5.72;2.40;;;;;;;13.22;100.00;101303.59;6301528;22;20425;-87
2022/10/16 09:08:50;;;;;;;7.25;2.47;;;;;;;13.25;100.00;101300.78;6301952;22;20007;-88
2022/10/16 09:11:26;;;;;;;7.47;2.30;;;;;;;13.32;100.00;101307.50;6302184;22;20057;-89
2022/10/16 09:14:36;;;;;;;4.78;2.00;;;;;;;13.49;100.00;101311.91;6303232;22;20447;-88
2022/10/16 09:17:22;;;;;;;6.30;2.08;;;;;;;13.53;99.87;101305.44;6205698;23;20250;-89
2022/10/16 09:19:59;;;;;;;3.40;2.00;;;;;;;13.69;96.94;101322.38;6209024;23;20015;-90
2022/10/16 09:22:28;;;;;;;4.95;2.15;;;;;;;13.79;98.32;101330.72;6210037;23;20019;-87
2022/10/16 09:25:00;;;;;;;5.80;2.38;;;;;;;13.84;98.40;101326.00;6210712;23;20011;-88
2022/10/16 09:27:26;;;;;;;4.22;2.08;;;;;;;13.95;98.17;101330.72;6209817;23;20149;-88
2022/10/16 09:29:51;;;;;;;3.88;1.90;;;;;;;14.09;95.09;101340.66;6186890;23;20008;-89
2022/10/16 09:32:20;;;;;;;3.38;2.08;;;;;;;14.35;95.28;101342.66;6210673;23;20092;-90
2022/10/16 09:34:54;;;;;;;6.25;1.98;;;;;;;14.54;92.56;101337.09;6210454;23;20008;-89
2022/10/16 09:37:25;;;;;;;4.47;1.80;;;;;;;15.02;89.98;101331.56;6214872;23;20000;-88
2022/10/16 09:39:52;;;;;;;6.00;2.08;;;;;;;16.05;86.16;101331.25;6187456;23;20018;-88
2022/10/16 09:42:21;;;;;;;5.97;2.22;;;;;;;17.61;77.46;101329.38;6211131;23;20203;-89
2022/10/16 09:44:49;;;;;;;5.45;1.73;;;;;;;18.89;71.02;101332.34;6210077;23;20013;-87
2022/10/16 09:47:18;;;;;;;4.65;1.80;;;;;;;20.75;64.47;101328.81;6206608;23;20009;-89
2022/10/16 09:49:53;;;;;;;4.90;1.60;;;;;;;22.22;60.96;101334.72;6206512;23;20070;-88
2022/10/16 09:52:19;;;;;;;4.55;1.30;;;;;;;22.80;56.00;101337.38;6299682;22;20003;-89
2022/10/16 09:54:59;;;;;;;4.70;1.30;;;;;;;23.77;59.11;101342.53;6300182;22;20337;-89
2022/10/16 09:57:25;;;;;;;7.28;1.48;;;;;;;24.79;48.29;101341.34;6301489;22;20502;-88
2022/10/16 09:59:53;;;;;;;4.00;1.77;;;;;;;24.73;48.33;101348.28;6302338;22;20054;-88
2022/10/16 10:02:28;;;;;;;6.32;1.60;;;;;;;25.52;47.55;101341.81;6302611;22;20012;-88
2022/10/16 10:04:54;;;;;;;4.93;1.38;;;;;;;26.74;44.17;101343.13;6305285;22;20006;-89
2022/10/16 10:07:25;;;;;;;5.45;1.50;;;;;;;27.60;42.11;101337.00;6303803;22;20074;-87
2022/10/16 10:09:51;;;;;;;3.35;1.50;;;;;;;28.07;38.68;101337.97;6314741;22;20080;-87
2022/10/16 10:12:28;;;;;;;3.28;1.13;;;;;;;28.30;41.80;101352.53;6317740;22;20007;-89
2022/10/16 10:15:03;;;;;;;3.85;1.40;;;;;;;26.70;40.83;101360.88;6319213;22;20334;-88
2022/10/16 10:17:29;;;;;;;8.90;2.00;;;;;;;26.13;41.00;101356.22;6319055;22;20007;-88
2022/10/16 10:19:57;;;;;;;5.68;1.85;;;;;;;24.47;43.78;101355.53;6304418;22;20007;-88
2022/10/16 10:22:22;;;;;;;4.15;1.60;;;;;;;25.73;42.32;101359.63;6302359;22;20003;-88
2022/10/16 10:25:26;;;;;;;6.90;1.50;;;;;;;26.08;44.24;101358.56;6303340;22;20005;-89
2022/10/16 10:27:57;;;;;;;4.28;1.70;;;;;;;26.03;43.77;101369.13;6178080;23;20241;-89
2022/10/16 10:30:47;;;;;;;5.05;1.60;;;;;;;27.19;44.50;101367.19;6179214;23;20385;-88
2022/10/16 10:33:31;;;;;;;5.57;1.65;;;;;;;28.23;40.99;101373.47;6177428;23;20005;-88
2022/10/16 10:36:07;;;;;;;6.00;1.60;;;;;;;28.36;37.85;101367.41;6178276;23;20760;-88
2022/10/16 10:38:41;;;;;;;6.35;1.50;;;;;;;28.52;38.47;101379.09;6177216;23;20088;-88
2022/10/16 10:41:19;;;;;;;6.07;1.73;;;;;;;27.19;36.85;101380.84;6177812;23;20493;-89
2022/10/16 10:43:47;;;;;;;5.50;1.70;;;;;;;25.83;40.74;101385.78;6178105;23;20064;-89
2022/10/16 10:46:36;;;;;;;4.97;1.45;;;;;;;27.30;41.83;101380.50;6181848;23;20049;-88
2022/10/16 10:49:17;;;;;;;6.35;1.67;;;;;;;28.17;36.45;101379.63;6178620;23;20009;-88
2022/10/16 10:52:06;;;;;;;4.53;1.77;;;;;;;28.73;36.14;101380.31;6179426;23;20005;-88
2022/10/16 10:54:37;;;;;;;4.55;1.60;;;;;;;29.63;33.63;101379.44;6176147;23;20075;-88
2022/10/16 10:57:21;;;;;;;4.65;1.58;;;;;;;30.38;34.72;101387.34;6179048;23;20438;-89
2022/10/16 11:00:01;;;;;;;7.10;1.80;;;;;;;31.53;32.80;101389.00;6179587;23;20088;-90
2022/10/16 11:02:45;;;;;;;6.43;2.70;;;;;;;32.15;33.14;101381.69;6176764;23;20040;-89
2022/10/16 11:05:29;;;;;;;8.65;4.68;;;;;;;32.64;31.61;101386.88;6288953;22;20041;-87
2022/10/16 11:08:00;;;;;;;8.13;6.22;;;;;;;32.43;28.91;101382.38;6306039;22;19999;-88
2022/10/16 11:10:34;;;;;;;5.25;2.72;;;;;;;32.44;28.27;101386.03;6311995;22;19999;-88
2022/10/16 11:13:21;;;;;;;5.47;2.67;;;;;;;33.01;31.62;101384.59;6320933;22;20011;-89
2022/10/16 11:15:50;;;;;;;3.72;1.58;;;;;;;32.94;27.69;101378.22;6288044;22;20030;-87
2022/10/16 11:18:33;;;;;;;6.15;1.90;;;;;;;33.26;30.80;101382.00;6319531;22;20051;-88
2022/10/16 11:21:06;;;;;;;4.30;1.60;;;;;;;33.49;28.06;101386.25;6316142;22;19999;-89
2022/10/16 11:23:40;;;;;;;4.47;1.63;;;;;;;33.50;26.31;101390.72;6317146;22;20452;-86
2022/10/16 11:26:15;;;;;;;4.40;1.65;;;;;;;33.50;27.50;101397.06;6305223;22;20302;-87
2022/10/16 11:28:54;;;;;;;5.22;1.65;;;;;;;33.06;29.19;101387.53;6308547;22;20007;-88